South Carver, Massachusetts
Current Conditions -  °F | °C
As of 12:52 AM on Sunday 23 Nov 2014 (Local Time) from KPYM Reporting Station
Overcast Overcast  
Wind Chill: 39°   Ceiling: 7500
Heat Index: 45°   Visibility: 10mi
Dew Point: 29°   Wind: 14mph
Humidity: 53%   Direction: 230°SW
Pressure: 30.09"   Gusts: NA
Location:  41.84°N, 70.75°W
Report Text: KPYM 230552Z AUTO 23012KT 10SM BKN075 OVC090 07/M02 A3009 RMK AO2 SLP191 T00721017 10072 20050 56003
Loading
Personal Weather Stations






























Interactive Weather Map New forecast layout! Learn more

10-Day Weather Forecast

Advertisements
Track Severe Weather on mobile